createdAt,value
2022-07-30T00:01:14.604Z,203.68
2022-07-30T00:03:41.369Z,198.32
2022-07-30T00:06:07.983Z,189.50
2022-07-30T00:08:34.740Z,193.70
2022-07-30T00:11:01.294Z,189.50
2022-07-30T00:13:27.959Z,193.77
2022-07-30T00:15:54.486Z,181.70
2022-07-30T00:18:21.823Z,175.98
2022-07-30T00:20:49.034Z,177.38
2022-07-30T00:23:15.615Z,173.77
2022-07-30T00:25:42.259Z,166.88
2022-07-30T00:28:08.797Z,168.45
2022-07-30T00:30:35.597Z,159.88
2022-07-30T00:33:02.267Z,160.07
2022-07-30T00:35:28.904Z,153.13
2022-07-30T00:37:55.530Z,159.93
2022-07-30T00:40:22.187Z,154.57
2022-07-30T00:42:48.827Z,157.43
2022-07-30T00:45:16.776Z,152.73
2022-07-30T00:47:43.804Z,156.00
2022-07-30T00:50:11.974Z,158.35
2022-07-30T00:52:39.668Z,155.57
2022-07-30T00:55:09.508Z,146.95
2022-07-30T00:57:36.525Z,156.57
2022-07-30T01:00:06.013Z,154.73
2022-07-30T01:02:32.597Z,147.63
2022-07-30T01:04:59.184Z,148.05
2022-07-30T01:07:27.420Z,154.98
2022-07-30T01:09:54.040Z,152.70
2022-07-30T01:12:25.058Z,154.60
2022-07-30T01:14:52.842Z,154.98
2022-07-30T01:17:19.379Z,151.98
2022-07-30T01:19:56.036Z,148.82
2022-07-30T01:22:31.489Z,146.07
2022-07-30T01:25:04.140Z,147.52
2022-07-30T01:27:35.371Z,147.63
2022-07-30T01:30:04.201Z,145.75
2022-07-30T01:32:33.343Z,145.27
2022-07-30T01:35:02.828Z,147.30
2022-07-30T01:37:31.698Z,142.85
2022-07-30T01:39:58.960Z,143.27
2022-07-30T01:42:28.809Z,143.93
2022-07-30T01:44:57.296Z,142.90
2022-07-30T01:47:25.335Z,139.43
2022-07-30T01:49:54.882Z,135.52
2022-07-30T01:52:23.538Z,132.98
2022-07-30T01:54:52.390Z,134.70
2022-07-30T01:57:21.123Z,131.70
2022-07-30T01:59:52.082Z,130.00
2022-07-30T02:02:18.866Z,127.43
2022-07-30T02:04:45.527Z,123.00
2022-07-30T02:08:23.192Z,126.72
2022-07-30T02:10:54.036Z,116.20
2022-07-30T02:13:23.435Z,120.18
2022-07-30T02:16:13.871Z,115.38
2022-07-30T02:18:42.952Z,109.72
2022-07-30T02:21:13.081Z,108.78
2022-07-30T02:23:44.191Z,109.85
2022-07-30T02:26:18.498Z,103.82
2022-07-30T02:28:49.695Z,122.68
2022-07-30T02:31:20.915Z,120.50
2022-07-30T02:33:50.434Z,119.28
2022-07-30T02:36:20.184Z,84.25
2022-07-30T02:38:50.742Z,87.72
2022-07-30T02:41:20.497Z,80.65
2022-07-30T02:43:49.900Z,88.95
2022-07-30T02:46:19.112Z,75.07
2022-07-30T02:48:47.867Z,73.18
2022-07-30T02:51:17.549Z,76.25
2022-07-30T02:53:46.760Z,73.00
2022-07-30T02:56:16.041Z,72.03
2022-07-30T02:58:44.758Z,60.08
2022-07-30T03:01:13.530Z,59.97
2022-07-30T03:03:42.831Z,56.65
2022-07-30T03:06:11.725Z,59.97
2022-07-30T03:08:38.390Z,47.40
2022-07-30T03:11:05.739Z,51.00
2022-07-30T03:13:32.395Z,47.38
2022-07-30T03:16:00.322Z,47.95
2022-07-30T03:18:32.822Z,46.22
2022-07-30T03:21:00.714Z,44.88
2022-07-30T03:23:28.091Z,39.75
2022-07-30T03:26:02.118Z,37.28
2022-07-30T03:30:58.700Z,33.30
2022-07-30T03:33:33.605Z,34.05
2022-07-30T03:36:07.047Z,33.63
2022-07-30T03:38:35.879Z,35.67
2022-07-30T03:41:03.196Z,34.92
2022-07-30T03:43:33.209Z,34.75
2022-07-30T03:46:03.385Z,32.60
2022-07-30T03:48:31.261Z,33.97
2022-07-30T03:50:59.210Z,34.33
2022-07-30T03:53:27.668Z,33.38
2022-07-30T03:55:54.944Z,31.85
2022-07-30T03:58:22.046Z,33.00
2022-07-30T04:00:49.901Z,32.03
2022-07-30T04:03:27.792Z,32.58
2022-07-30T04:05:54.435Z,34.35
2022-07-30T04:08:21.397Z,32.05
2022-07-30T04:10:49.432Z,33.42
2022-07-30T04:13:16.405Z,36.35
2022-07-30T04:16:39.261Z,33.90
2022-07-30T04:18:54.760Z,34.35
2022-07-30T04:21:23.843Z,33.72
2022-07-30T04:24:02.363Z,33.78
2022-07-30T04:26:33.855Z,32.92
2022-07-30T04:29:01.469Z,36.20
2022-07-30T04:31:29.186Z,35.35
2022-07-30T04:33:55.880Z,35.72
2022-07-30T04:36:30.495Z,35.45
2022-07-30T04:38:58.136Z,33.53
2022-07-30T04:41:24.857Z,37.35
2022-07-30T04:43:52.426Z,34.85
2022-07-30T04:46:19.122Z,38.30
2022-07-30T04:48:48.228Z,39.08
2022-07-30T04:51:34.858Z,37.08
2022-07-30T04:54:03.053Z,39.70
2022-07-30T04:56:33.824Z,37.97
2022-07-30T04:59:01.476Z,37.47
2022-07-30T05:01:40.530Z,41.05
2022-07-30T05:04:09.298Z,36.35
2022-07-30T05:06:37.822Z,37.63
2022-07-30T05:09:06.320Z,37.85
2022-07-30T05:11:32.939Z,37.13
2022-07-30T05:13:59.515Z,38.30
2022-07-30T05:16:26.434Z,38.90
2022-07-30T05:18:53.058Z,40.75
2022-07-30T05:21:19.591Z,38.60
2022-07-30T05:23:50.010Z,40.25
2022-07-30T05:26:20.578Z,39.20
2022-07-30T05:28:52.115Z,37.83
2022-07-30T05:31:20.644Z,39.83
2022-07-30T05:33:47.958Z,40.67
2022-07-30T05:36:14.606Z,45.10
2022-07-30T05:38:41.125Z,42.65
2022-07-30T05:41:25.178Z,39.97
2022-07-30T05:43:56.139Z,40.40
2022-07-30T05:46:23.297Z,40.05
2022-07-30T05:48:50.267Z,41.10
2022-07-30T05:51:18.743Z,42.25
2022-07-30T05:53:45.454Z,41.67
2022-07-30T05:56:12.048Z,41.22
2022-07-30T05:58:38.677Z,42.15
2022-07-30T06:01:05.358Z,41.65
2022-07-30T06:03:31.922Z,44.00
2022-07-30T06:05:58.445Z,41.95
2022-07-30T06:08:24.991Z,48.38
2022-07-30T06:10:51.580Z,47.10
2022-07-30T06:13:18.230Z,47.97
2022-07-30T06:15:44.797Z,47.42
2022-07-30T06:18:11.380Z,50.55
2022-07-30T06:20:37.895Z,47.40
2022-07-30T06:23:04.436Z,54.80
2022-07-30T06:25:31.246Z,50.20
2022-07-30T06:27:57.781Z,51.65
2022-07-30T06:30:30.236Z,52.72
2022-07-30T06:32:57.900Z,52.72
2022-07-30T06:35:24.482Z,51.55
2022-07-30T06:38:00.638Z,54.03
2022-07-30T06:40:34.581Z,58.03
2022-07-30T06:43:01.203Z,59.63
2022-07-30T06:45:27.799Z,55.05
2022-07-30T06:47:58.715Z,61.95
2022-07-30T06:50:26.032Z,66.25
2022-07-30T06:52:52.695Z,72.57
2022-07-30T06:55:19.479Z,77.80
2022-07-30T06:57:46.112Z,83.60
2022-07-30T07:00:12.963Z,92.13
2022-07-30T07:02:39.602Z,108.88
2022-07-30T07:05:07.477Z,122.75
2022-07-30T07:07:42.493Z,116.57
2022-07-30T07:10:13.245Z,115.85
2022-07-30T07:12:39.936Z,135.65
2022-07-30T07:15:07.016Z,143.75
2022-07-30T07:17:33.539Z,155.65
2022-07-30T07:20:02.657Z,151.95
2022-07-30T07:22:29.554Z,142.35
2022-07-30T07:24:56.346Z,145.13
2022-07-30T07:27:22.902Z,143.68
2022-07-30T07:30:05.004Z,153.50
2022-07-30T07:32:33.324Z,142.98
2022-07-30T07:34:59.861Z,157.50
2022-07-30T07:37:26.515Z,157.10
2022-07-30T07:39:53.095Z,175.07
2022-07-30T07:42:19.695Z,174.65
2022-07-30T07:44:46.264Z,175.85
2022-07-30T07:47:12.881Z,183.18
2022-07-30T07:49:39.431Z,196.27
2022-07-30T07:52:06.754Z,179.90
2022-07-30T07:54:33.547Z,147.65
2022-07-30T07:57:03.152Z,158.60
2022-07-30T07:59:36.178Z,147.05
2022-07-30T08:02:08.033Z,132.82
2022-07-30T08:04:35.341Z,137.05
2022-07-30T08:07:02.349Z,153.27
2022-07-30T08:09:43.902Z,156.25
2022-07-30T08:12:12.776Z,151.35
2022-07-30T08:14:39.708Z,167.98
2022-07-30T08:17:06.782Z,180.00
2022-07-30T08:19:34.048Z,176.63
2022-07-30T08:22:00.718Z,162.70
2022-07-30T08:24:27.232Z,147.75
2022-07-30T08:26:53.935Z,167.18
2022-07-30T08:29:20.453Z,173.55
2022-07-30T08:31:47.124Z,183.07
2022-07-30T08:34:14.083Z,216.40
2022-07-30T08:36:41.427Z,172.43
2022-07-30T08:39:08.830Z,170.88
2022-07-30T08:41:36.800Z,214.20
2022-07-30T08:44:06.935Z,158.68
2022-07-30T08:46:40.868Z,151.95
2022-07-30T08:49:14.800Z,186.18
2022-07-30T08:51:42.200Z,165.93
2022-07-30T08:54:09.386Z,191.52
2022-07-30T08:56:36.082Z,164.80
2022-07-30T08:59:03.538Z,185.82
2022-07-30T09:01:30.239Z,195.80
2022-07-30T09:03:56.851Z,153.13
2022-07-30T09:06:23.507Z,125.43
2022-07-30T09:08:50.086Z,140.57
2022-07-30T09:11:16.728Z,157.45
2022-07-30T09:13:44.581Z,175.55
2022-07-30T09:16:25.642Z,189.43
2022-07-30T09:18:54.055Z,192.18
2022-07-30T09:21:26.527Z,213.50
2022-07-30T09:24:03.291Z,334.48
2022-07-30T09:26:31.182Z,275.42
2022-07-30T09:29:17.000Z,271.85
2022-07-30T09:32:16.204Z,226.52
2022-07-30T09:34:42.719Z,212.00
2022-07-30T09:37:09.202Z,201.07
2022-07-30T09:39:40.884Z,196.10
2022-07-30T09:42:27.754Z,183.38
2022-07-30T09:45:06.643Z,179.23
2022-07-30T09:47:38.623Z,180.30
2022-07-30T09:50:08.155Z,188.57
2022-07-30T09:52:35.247Z,210.52
2022-07-30T09:55:02.107Z,207.73
2022-07-30T09:57:30.478Z,159.07
2022-07-30T09:59:59.901Z,137.35
2022-07-30T10:02:34.034Z,96.43
2022-07-30T10:05:15.419Z,71.68
2022-07-30T10:07:52.486Z,53.03
2022-07-30T10:10:25.588Z,44.45
2022-07-30T10:13:01.342Z,42.08
2022-07-30T10:15:35.073Z,50.15
2022-07-30T10:18:06.087Z,45.88
2022-07-30T10:20:34.927Z,52.15
2022-07-30T10:23:08.094Z,51.85
2022-07-30T10:25:36.407Z,50.03
2022-07-30T10:28:03.950Z,49.70
2022-07-30T10:30:32.387Z,51.47
2022-07-30T10:33:00.304Z,50.53
2022-07-30T10:35:34.830Z,43.58
2022-07-30T10:38:09.526Z,39.85
2022-07-30T10:40:52.306Z,37.85
2022-07-30T10:43:24.751Z,36.28
2022-07-30T10:46:55.553Z,28.77
2022-07-30T10:51:57.436Z,22.88
2022-07-30T10:54:42.279Z,21.52
2022-07-30T10:57:14.978Z,18.92
2022-07-30T10:59:55.460Z,17.27
2022-07-30T11:02:35.848Z,17.23
2022-07-30T11:05:17.860Z,16.20
2022-07-30T11:07:47.350Z,16.17
2022-07-30T11:10:40.250Z,14.80
2022-07-30T11:13:08.476Z,15.95
2022-07-30T11:15:57.512Z,13.95
2022-07-30T11:18:26.685Z,15.68
2022-07-30T11:21:21.327Z,16.30
2022-07-30T11:23:49.471Z,15.10
2022-07-30T11:26:40.996Z,17.05
2022-07-30T11:29:32.865Z,14.23
2022-07-30T11:32:28.079Z,16.10
2022-07-30T11:35:17.503Z,17.02
2022-07-30T11:38:15.531Z,17.23
2022-07-30T11:40:45.632Z,16.92
2022-07-30T11:43:35.142Z,17.70
2022-07-30T11:46:29.602Z,16.05
2022-07-30T11:49:02.763Z,14.23
2022-07-30T11:51:43.546Z,15.02
2022-07-30T11:54:13.191Z,16.60
2022-07-30T11:56:50.748Z,17.35
2022-07-30T11:59:17.372Z,18.35
2022-07-30T12:01:48.868Z,37.28
2022-07-30T12:04:15.521Z,48.28
2022-07-30T12:06:50.884Z,50.08
2022-07-30T12:09:28.691Z,51.88
2022-07-30T12:11:56.527Z,63.05
2022-07-30T12:14:23.203Z,66.05
2022-07-30T12:16:54.075Z,111.60
2022-07-30T12:19:20.911Z,108.88
2022-07-30T12:21:52.753Z,143.07
2022-07-30T12:24:25.897Z,163.75
2022-07-30T12:26:52.471Z,159.55
2022-07-30T12:29:19.223Z,173.50
2022-07-30T12:31:46.573Z,184.30
2022-07-30T12:34:20.914Z,179.18
2022-07-30T12:36:47.606Z,183.65
2022-07-30T12:39:20.653Z,177.40
2022-07-30T12:41:49.735Z,185.33
2022-07-30T12:44:42.355Z,181.73
2022-07-30T12:47:20.106Z,180.68
2022-07-30T12:49:49.637Z,175.70
2022-07-30T12:52:30.961Z,178.80
2022-07-30T12:54:59.990Z,191.65
2022-07-30T12:57:26.575Z,204.68
2022-07-30T13:00:08.188Z,219.73
2022-07-30T13:02:36.213Z,242.50
2022-07-30T13:05:10.541Z,265.30
2022-07-30T13:07:57.967Z,227.02
2022-07-30T13:10:30.420Z,227.50
2022-07-30T13:12:58.255Z,280.15
2022-07-30T13:15:24.786Z,302.00
2022-07-30T13:17:51.460Z,296.13
2022-07-30T13:20:18.684Z,321.73
2022-07-30T13:22:45.519Z,333.30
2022-07-30T13:25:12.893Z,334.45
2022-07-30T13:27:40.175Z,356.58
2022-07-30T13:30:07.677Z,355.85
2022-07-30T13:32:34.261Z,347.77
2022-07-30T13:35:02.349Z,355.77
2022-07-30T13:37:37.781Z,369.67
2022-07-30T13:40:06.785Z,365.50
2022-07-30T13:42:33.502Z,351.38
2022-07-30T13:45:00.245Z,332.65
2022-07-30T13:47:26.804Z,304.38
2022-07-30T13:49:53.408Z,275.92
2022-07-30T13:52:19.973Z,246.18
2022-07-30T13:54:46.669Z,231.05
2022-07-30T13:57:13.184Z,219.27
2022-07-30T13:59:39.801Z,224.05
2022-07-30T14:02:06.398Z,179.13
2022-07-30T14:04:32.997Z,188.10
2022-07-30T14:06:59.848Z,203.60
2022-07-30T14:09:26.906Z,188.20
2022-07-30T14:11:53.899Z,189.52
2022-07-30T14:14:22.420Z,193.15
2022-07-30T14:16:51.770Z,191.48
2022-07-30T14:19:22.728Z,185.18
2022-07-30T14:21:50.379Z,158.98
2022-07-30T14:24:16.946Z,179.35
2022-07-30T14:26:44.011Z,188.10
2022-07-30T14:29:10.981Z,170.93
2022-07-30T14:31:37.918Z,152.27
2022-07-30T14:34:04.799Z,147.63
2022-07-30T14:36:31.339Z,161.27
2022-07-30T14:38:58.140Z,144.40
2022-07-30T14:41:25.591Z,136.43
2022-07-30T14:43:52.873Z,142.43
2022-07-30T14:46:19.985Z,143.50
2022-07-30T14:48:46.543Z,142.35
2022-07-30T14:51:19.453Z,135.52
2022-07-30T14:53:50.464Z,147.05
2022-07-30T14:56:17.696Z,166.63
2022-07-30T14:58:44.487Z,188.25
2022-07-30T15:01:16.116Z,187.98
2022-07-30T15:03:44.126Z,180.70
2022-07-30T15:06:12.679Z,163.88
2022-07-30T15:08:39.276Z,177.85
2022-07-30T15:11:07.850Z,146.73
2022-07-30T15:13:41.110Z,157.45
2022-07-30T15:16:17.361Z,175.75
2022-07-30T15:18:43.926Z,164.57
2022-07-30T15:21:12.450Z,199.52
2022-07-30T15:23:38.998Z,231.75
2022-07-30T15:26:05.577Z,230.10
2022-07-30T15:28:32.137Z,274.10
2022-07-30T15:30:59.008Z,274.95
2022-07-30T15:33:25.865Z,224.70
2022-07-30T15:35:52.897Z,227.50
2022-07-30T15:38:19.516Z,252.00
2022-07-30T15:40:46.191Z,255.68
2022-07-30T15:43:12.700Z,291.83
2022-07-30T15:45:55.869Z,294.75
2022-07-30T15:48:27.419Z,333.55
2022-07-30T15:51:02.659Z,312.90
2022-07-30T15:53:31.215Z,300.08
2022-07-30T15:55:58.698Z,322.90
2022-07-30T15:58:25.366Z,302.65
2022-07-30T16:00:51.963Z,321.00
2022-07-30T16:03:18.615Z,344.98
2022-07-30T16:05:51.595Z,345.83
2022-07-30T16:08:19.625Z,308.25
2022-07-30T16:10:46.178Z,327.38
2022-07-30T16:13:12.768Z,379.80
2022-07-30T16:15:39.335Z,384.92
2022-07-30T16:18:06.385Z,381.58
2022-07-30T16:20:33.194Z,387.40
2022-07-30T16:22:59.924Z,384.70
2022-07-30T16:25:26.872Z,351.55
2022-07-30T16:27:53.502Z,283.83
2022-07-30T16:30:20.399Z,298.83
2022-07-30T16:32:46.955Z,267.25
2022-07-30T16:35:13.676Z,276.23
2022-07-30T16:37:41.462Z,243.52
2022-07-30T16:40:08.552Z,245.40
2022-07-30T16:42:35.143Z,282.33
2022-07-30T16:45:01.710Z,313.92
2022-07-30T16:47:28.256Z,318.40
2022-07-30T16:50:00.953Z,294.30
2022-07-30T16:52:27.578Z,312.38
2022-07-30T16:54:54.251Z,293.17
2022-07-30T16:57:20.848Z,304.48
2022-07-30T16:59:47.347Z,318.75
2022-07-30T17:02:13.951Z,338.88
2022-07-30T17:04:41.550Z,335.95
2022-07-30T17:07:08.238Z,351.58
2022-07-30T17:09:36.634Z,346.08
2022-07-30T17:12:06.169Z,356.27
2022-07-30T17:14:38.889Z,337.13
2022-07-30T17:17:05.430Z,324.30
2022-07-30T17:19:32.021Z,326.15
2022-07-30T17:21:58.555Z,312.98
2022-07-30T17:24:25.433Z,313.83
2022-07-30T17:26:52.594Z,322.73
2022-07-30T17:29:19.114Z,328.52
2022-07-30T17:31:46.134Z,329.63
2022-07-30T17:34:15.271Z,344.35
2022-07-30T17:36:52.044Z,346.88
2022-07-30T17:40:18.771Z,352.70
2022-07-30T17:42:07.636Z,348.13
2022-07-30T17:44:35.558Z,360.08
2022-07-30T17:47:02.135Z,338.92
2022-07-30T17:49:29.991Z,338.35
2022-07-30T17:51:56.855Z,329.30
2022-07-30T17:54:23.589Z,330.20
2022-07-30T17:56:50.183Z,333.40
2022-07-30T17:59:16.753Z,310.58
2022-07-30T18:01:45.682Z,302.90
2022-07-30T18:04:12.459Z,286.10
2022-07-30T18:06:39.035Z,269.25
2022-07-30T18:09:06.360Z,254.60
2022-07-30T18:11:33.300Z,232.07
2022-07-30T18:13:59.939Z,232.00
2022-07-30T18:16:26.484Z,217.90
2022-07-30T18:18:53.024Z,216.10
2022-07-30T18:21:19.608Z,191.10
2022-07-30T18:23:46.192Z,194.45
2022-07-30T18:26:12.805Z,172.93
2022-07-30T18:28:39.396Z,171.20
2022-07-30T18:31:06.317Z,159.43
2022-07-30T18:33:32.919Z,150.00
2022-07-30T18:35:59.519Z,148.52
2022-07-30T18:38:26.161Z,137.30
2022-07-30T18:40:58.548Z,143.32
2022-07-30T18:43:29.305Z,149.38
2022-07-30T18:45:57.156Z,144.27
2022-07-30T18:48:24.629Z,150.40
2022-07-30T18:50:52.870Z,140.75
2022-07-30T18:53:19.824Z,140.18
2022-07-30T18:55:46.697Z,141.35
2022-07-30T18:58:13.269Z,135.18
2022-07-30T19:00:42.844Z,142.57
2022-07-30T19:03:16.436Z,142.35
2022-07-30T19:05:45.625Z,130.00
2022-07-30T19:08:12.145Z,133.38
2022-07-30T19:10:39.973Z,135.15
2022-07-30T19:13:06.603Z,126.50
2022-07-30T19:15:33.221Z,131.25
2022-07-30T19:17:59.816Z,131.63
2022-07-30T19:20:26.762Z,127.43
2022-07-30T19:23:01.655Z,116.78
2022-07-30T19:25:29.812Z,113.38
2022-07-30T19:27:56.427Z,117.35
2022-07-30T19:30:22.934Z,110.55
2022-07-30T19:32:49.649Z,105.72
2022-07-30T19:35:16.258Z,95.57
2022-07-30T19:37:42.879Z,91.53
2022-07-30T19:40:10.007Z,81.65
2022-07-30T19:42:41.469Z,73.15
2022-07-30T19:45:11.446Z,65.32
2022-07-30T19:47:39.876Z,65.25
2022-07-30T19:50:10.231Z,56.85
2022-07-30T19:52:37.990Z,51.45
2022-07-30T19:57:54.312Z,42.60
2022-07-30T20:00:24.690Z,40.53
2022-07-30T20:02:52.960Z,41.05
2022-07-30T20:05:19.796Z,35.55
2022-07-30T20:07:47.138Z,34.65
2022-07-30T20:10:16.361Z,29.38
2022-07-30T20:12:49.058Z,27.05
2022-07-30T20:15:16.768Z,26.90
2022-07-30T20:17:43.320Z,23.60
2022-07-30T20:20:13.641Z,27.50
2022-07-30T20:22:40.603Z,24.45
2022-07-30T20:25:08.436Z,25.23
2022-07-30T20:27:37.155Z,26.35
2022-07-30T20:30:05.788Z,26.27
2022-07-30T20:32:32.351Z,24.63
2022-07-30T20:34:58.966Z,25.63
2022-07-30T20:37:27.485Z,28.85
2022-07-30T20:39:55.016Z,27.45
2022-07-30T20:42:23.668Z,26.52
2022-07-30T20:44:53.268Z,30.00
2022-07-30T20:47:34.254Z,27.63
2022-07-30T20:50:09.588Z,24.30
2022-07-30T20:52:37.483Z,23.25
2022-07-30T20:55:08.577Z,21.73
2022-07-30T20:57:57.122Z,19.70
2022-07-30T21:00:23.092Z,16.00
2022-07-30T21:02:51.386Z,15.82
2022-07-30T21:05:19.949Z,14.63
2022-07-30T21:07:47.054Z,12.55
2022-07-30T21:10:14.635Z,13.13
2022-07-30T21:12:44.834Z,10.25
2022-07-30T21:15:24.021Z,8.20
2022-07-30T21:17:51.248Z,9.10
2022-07-30T21:20:27.819Z,8.60
2022-07-30T21:22:55.835Z,8.00
2022-07-30T21:25:23.521Z,8.40
2022-07-30T21:28:00.480Z,7.18
2022-07-30T21:30:30.321Z,6.72
2022-07-30T21:32:56.854Z,6.93
2022-07-30T21:35:23.616Z,6.85
2022-07-30T21:37:51.953Z,8.65
2022-07-30T21:40:19.122Z,7.10
2022-07-30T21:42:51.394Z,6.30
2022-07-30T21:45:18.027Z,5.72
2022-07-30T21:47:47.588Z,6.32
2022-07-30T21:50:15.934Z,6.28
2022-07-30T21:52:43.551Z,6.18
2022-07-30T21:55:13.387Z,6.88
2022-07-30T21:57:40.701Z,6.10
2022-07-30T22:00:15.066Z,7.20
2022-07-30T22:02:53.026Z,7.15
2022-07-30T22:05:21.741Z,7.72
2022-07-30T22:07:49.997Z,8.30
2022-07-30T22:10:21.524Z,8.05
2022-07-30T22:12:48.618Z,8.95
2022-07-30T22:15:15.347Z,8.30
2022-07-30T22:17:57.799Z,7.72
2022-07-30T22:20:26.915Z,10.20
2022-07-30T22:22:57.523Z,9.43
2022-07-30T22:25:24.418Z,8.57
2022-07-30T22:28:10.437Z,8.82
2022-07-30T22:30:38.534Z,9.88
2022-07-30T22:33:14.195Z,9.18
2022-07-30T22:35:46.583Z,11.65
2022-07-30T22:38:13.680Z,8.02
2022-07-30T22:40:40.432Z,8.93
2022-07-30T22:43:12.465Z,7.78
2022-07-30T22:45:49.133Z,8.48
2022-07-30T22:48:17.200Z,8.68
2022-07-30T22:50:43.715Z,8.30
2022-07-30T22:54:02.569Z,9.18
2022-07-30T22:55:58.642Z,8.55
2022-07-30T22:58:26.405Z,8.05
2022-07-30T23:00:53.484Z,6.93
2022-07-30T23:03:20.173Z,7.55
2022-07-30T23:05:55.010Z,6.90
2022-07-30T23:08:29.615Z,6.00
2022-07-30T23:10:57.080Z,6.28
2022-07-30T23:12:16.862Z,47.60
2022-07-30T23:13:23.633Z,5.90
2022-07-30T23:15:50.196Z,6.32
2022-07-30T23:18:16.750Z,6.53
2022-07-30T23:20:43.318Z,8.10
2022-07-30T23:23:11.624Z,5.20
2022-07-30T23:25:39.281Z,5.13
2022-07-30T23:28:06.390Z,4.60
2022-07-30T23:30:34.221Z,4.20
2022-07-30T23:33:01.124Z,4.57
2022-07-30T23:35:27.690Z,23.88
2022-07-30T23:37:54.226Z,5.03
2022-07-30T23:40:20.751Z,5.57
2022-07-30T23:42:47.793Z,7.00
2022-07-30T23:45:14.528Z,4.55
2022-07-30T23:48:00.799Z,4.30
2022-07-30T23:50:27.649Z,4.22
2022-07-30T23:52:54.162Z,4.82
2022-07-30T23:55:21.051Z,4.47
2022-07-30T23:57:47.595Z,4.05
